createdAt,value
2023-05-10T00:01:13.026Z,11.96
2023-05-10T00:03:39.189Z,11.93
2023-05-10T00:06:05.924Z,11.92
2023-05-10T00:08:32.039Z,11.87
2023-05-10T00:10:58.419Z,11.84
2023-05-10T00:13:24.912Z,11.85
2023-05-10T00:15:51.360Z,11.81
2023-05-10T00:18:17.440Z,11.79
2023-05-10T00:20:46.003Z,11.82
2023-05-10T00:23:12.568Z,11.76
2023-05-10T00:25:38.868Z,11.80
2023-05-10T00:28:04.920Z,11.85
2023-05-10T00:30:31.429Z,11.83
2023-05-10T00:32:57.545Z,11.76
2023-05-10T00:35:24.153Z,11.70
2023-05-10T00:37:50.384Z,11.65
2023-05-10T00:40:16.932Z,11.60
2023-05-10T00:42:48.212Z,11.60
2023-05-10T00:45:14.587Z,11.50
2023-05-10T00:47:41.189Z,11.50
2023-05-10T00:50:09.343Z,11.53
2023-05-10T00:52:36.031Z,11.43
2023-05-10T00:55:03.611Z,11.42
2023-05-10T00:57:29.781Z,11.32
2023-05-10T00:59:57.209Z,11.26
2023-05-10T01:02:25.183Z,11.19
2023-05-10T01:04:52.284Z,11.18
2023-05-10T01:07:18.525Z,11.14
2023-05-10T01:09:45.227Z,11.11
2023-05-10T01:12:11.910Z,11.05
2023-05-10T01:14:38.440Z,11.01
2023-05-10T01:17:07.981Z,10.98
2023-05-10T01:19:37.221Z,10.96
2023-05-10T01:22:25.139Z,10.99
2023-05-10T01:25:30.890Z,10.85
2023-05-10T01:28:23.408Z,10.81
2023-05-10T01:31:08.862Z,10.76
2023-05-10T01:34:02.952Z,10.70
2023-05-10T01:36:40.286Z,10.71
2023-05-10T01:39:26.013Z,10.68
2023-05-10T01:42:06.873Z,10.62
2023-05-10T01:45:06.992Z,10.63
2023-05-10T01:47:43.541Z,10.55
2023-05-10T01:50:17.510Z,10.49
2023-05-10T01:52:51.533Z,10.45
2023-05-10T01:55:21.297Z,10.45
2023-05-10T01:57:53.234Z,10.43
2023-05-10T02:00:20.539Z,10.42
2023-05-10T02:02:49.305Z,10.43
2023-05-10T02:05:16.889Z,10.40
2023-05-10T02:07:44.572Z,10.37
2023-05-10T02:10:12.070Z,10.40
2023-05-10T02:12:42.765Z,10.38
2023-05-10T02:15:10.745Z,10.37
2023-05-10T02:17:38.932Z,10.31
2023-05-10T02:20:08.006Z,10.31
2023-05-10T02:22:36.157Z,10.30
2023-05-10T02:25:04.328Z,10.32
2023-05-10T02:27:31.398Z,10.22
2023-05-10T02:29:58.654Z,10.15
2023-05-10T02:32:27.087Z,10.08
2023-05-10T02:34:54.871Z,10.10
2023-05-10T02:37:22.561Z,10.12
2023-05-10T02:39:50.945Z,10.12
2023-05-10T02:42:19.865Z,10.09
2023-05-10T02:44:49.232Z,10.08
2023-05-10T02:47:15.765Z,10.01
2023-05-10T02:49:42.189Z,10.00
2023-05-10T02:52:09.721Z,9.99
2023-05-10T02:54:44.324Z,10.00
2023-05-10T02:57:15.746Z,9.93
2023-05-10T02:59:43.178Z,9.91
2023-05-10T03:02:10.566Z,9.93
2023-05-10T03:04:36.843Z,9.90
2023-05-10T03:07:03.602Z,10.04
2023-05-10T03:09:30.431Z,9.96
2023-05-10T03:12:07.045Z,9.89
2023-05-10T03:14:52.989Z,9.84
2023-05-10T03:17:25.566Z,9.91
2023-05-10T03:19:55.637Z,9.92
2023-05-10T03:22:31.976Z,9.89
2023-05-10T03:25:00.965Z,9.91
2023-05-10T03:27:30.606Z,9.92
2023-05-10T03:29:58.083Z,9.87
2023-05-10T03:32:25.101Z,9.92
2023-05-10T03:34:51.623Z,9.92
2023-05-10T03:37:18.249Z,9.92
2023-05-10T03:39:45.220Z,9.91
2023-05-10T03:42:12.216Z,9.89
2023-05-10T03:44:40.421Z,9.97
2023-05-10T03:47:07.310Z,9.95
2023-05-10T03:49:33.610Z,9.99
2023-05-10T03:52:00.179Z,10.03
2023-05-10T03:54:26.780Z,10.11
2023-05-10T03:56:53.143Z,10.14
2023-05-10T03:59:20.330Z,10.19
2023-05-10T04:01:46.963Z,10.21
2023-05-10T04:04:13.236Z,10.25
2023-05-10T04:06:39.725Z,10.21
2023-05-10T04:09:05.999Z,10.28
2023-05-10T04:11:32.539Z,10.33
2023-05-10T04:13:58.602Z,10.35
2023-05-10T04:16:25.094Z,10.34
2023-05-10T04:18:51.206Z,10.39
2023-05-10T04:21:17.795Z,10.45
2023-05-10T04:23:43.916Z,10.54
2023-05-10T04:26:10.335Z,10.59
2023-05-10T04:28:36.545Z,10.66
2023-05-10T04:31:09.392Z,10.70
2023-05-10T04:33:36.403Z,10.72
2023-05-10T04:36:03.749Z,10.82
2023-05-10T04:38:30.157Z,10.80
2023-05-10T04:41:10.274Z,10.98
2023-05-10T04:43:37.690Z,11.07
2023-05-10T04:46:04.975Z,11.11
2023-05-10T04:48:31.158Z,11.22
2023-05-10T04:50:57.630Z,11.25
2023-05-10T04:53:25.274Z,11.28
2023-05-10T04:55:51.819Z,11.39
2023-05-10T04:58:18.052Z,11.46
2023-05-10T05:00:44.550Z,11.53
2023-05-10T05:03:11.026Z,11.59
2023-05-10T05:05:37.685Z,11.56
2023-05-10T05:08:04.335Z,11.69
2023-05-10T05:10:32.215Z,11.75
2023-05-10T05:12:58.374Z,11.85
2023-05-10T05:15:25.057Z,11.90
2023-05-10T05:17:51.771Z,12.04
2023-05-10T05:20:19.343Z,12.02
2023-05-10T05:22:45.594Z,12.10
2023-05-10T05:25:12.138Z,12.10
2023-05-10T05:27:38.309Z,12.31
2023-05-10T05:30:05.459Z,12.38
2023-05-10T05:32:31.665Z,12.41
2023-05-10T05:34:58.432Z,12.54
2023-05-10T05:37:24.801Z,12.61
2023-05-10T05:39:51.418Z,12.73
2023-05-10T05:42:18.922Z,13.18
2023-05-10T05:44:45.317Z,17.45
2023-05-10T05:47:11.540Z,20.48
2023-05-10T05:49:38.053Z,22.48
2023-05-10T05:52:04.984Z,24.22
2023-05-10T05:54:31.725Z,25.16
2023-05-10T05:57:00.951Z,25.42
2023-05-10T05:59:27.924Z,26.49
2023-05-10T06:01:54.801Z,26.91
2023-05-10T06:04:21.259Z,27.10
2023-05-10T06:06:47.658Z,25.61
2023-05-10T06:09:13.932Z,26.14
2023-05-10T06:11:40.459Z,26.40
2023-05-10T06:14:08.007Z,26.88
2023-05-10T06:16:35.252Z,27.06
2023-05-10T06:19:02.482Z,27.01
2023-05-10T06:21:28.942Z,25.85
2023-05-10T06:23:55.105Z,25.80
2023-05-10T06:26:21.485Z,26.30
2023-05-10T06:28:47.563Z,26.38
2023-05-10T06:31:13.989Z,26.23
2023-05-10T06:33:40.553Z,26.20
2023-05-10T06:36:07.336Z,25.72
2023-05-10T06:38:33.596Z,24.87
2023-05-10T06:41:00.044Z,25.27
2023-05-10T06:43:26.609Z,25.03
2023-05-10T06:45:52.991Z,25.83
2023-05-10T06:48:19.538Z,26.35
2023-05-10T06:50:46.343Z,26.23
2023-05-10T06:53:12.413Z,26.95
2023-05-10T06:55:39.250Z,27.03
2023-05-10T06:58:05.367Z,26.30
2023-05-10T07:00:31.987Z,27.02
2023-05-10T07:02:58.703Z,27.07
2023-05-10T07:05:25.157Z,27.10
2023-05-10T07:07:51.914Z,26.95
2023-05-10T07:10:18.406Z,26.88
2023-05-10T07:12:44.754Z,26.21
2023-05-10T07:15:11.257Z,26.24
2023-05-10T07:17:37.455Z,26.10
2023-05-10T07:20:04.503Z,26.67
2023-05-10T07:22:30.867Z,26.70
2023-05-10T07:24:57.205Z,26.62
2023-05-10T07:27:23.368Z,26.77
2023-05-10T07:29:49.792Z,26.99
2023-05-10T07:32:15.979Z,27.46
2023-05-10T07:34:42.457Z,27.53
2023-05-10T07:37:08.637Z,27.02
2023-05-10T07:39:35.072Z,26.60
2023-05-10T07:42:01.291Z,26.00
2023-05-10T07:44:27.779Z,26.19
2023-05-10T07:46:54.109Z,25.98
2023-05-10T07:49:20.601Z,26.00
2023-05-10T07:51:46.767Z,25.98
2023-05-10T07:54:14.379Z,26.41
2023-05-10T07:56:45.016Z,26.21
2023-05-10T07:59:15.700Z,26.47
2023-05-10T08:01:42.360Z,26.57
2023-05-10T08:04:09.268Z,26.62
2023-05-10T08:06:35.602Z,26.73
2023-05-10T08:09:02.610Z,26.54
2023-05-10T08:11:28.832Z,26.77
2023-05-10T08:13:55.335Z,26.62
2023-05-10T08:16:21.932Z,26.15
2023-05-10T08:18:49.443Z,26.48
2023-05-10T08:21:15.887Z,26.54
2023-05-10T08:23:43.853Z,25.91
2023-05-10T08:26:10.177Z,26.27
2023-05-10T08:28:36.631Z,26.10
2023-05-10T08:31:02.795Z,26.13
2023-05-10T08:33:29.442Z,25.84
2023-05-10T08:35:55.558Z,25.93
2023-05-10T08:38:22.188Z,25.18
2023-05-10T08:40:51.010Z,25.27
2023-05-10T08:43:17.451Z,25.58
2023-05-10T08:45:48.198Z,25.43
2023-05-10T08:48:16.175Z,24.90
2023-05-10T08:50:43.313Z,24.85
2023-05-10T08:53:11.287Z,24.96
2023-05-10T08:55:39.060Z,24.62
2023-05-10T08:58:06.139Z,24.86
2023-05-10T09:00:33.325Z,25.04
2023-05-10T09:03:00.586Z,24.62
2023-05-10T09:05:27.117Z,24.82
2023-05-10T09:07:53.510Z,24.47
2023-05-10T09:10:20.534Z,24.52
2023-05-10T09:12:48.193Z,24.52
2023-05-10T09:15:19.668Z,24.00
2023-05-10T09:17:47.417Z,23.60
2023-05-10T09:20:13.796Z,23.65
2023-05-10T09:22:40.449Z,24.14
2023-05-10T09:25:16.224Z,24.51
2023-05-10T09:27:47.732Z,24.54
2023-05-10T09:30:18.338Z,24.11
2023-05-10T09:32:47.614Z,24.33
2023-05-10T09:35:16.029Z,24.19
2023-05-10T09:37:44.738Z,24.62
2023-05-10T09:40:16.037Z,24.22
2023-05-10T09:42:50.535Z,24.31
2023-05-10T09:45:16.858Z,23.65
2023-05-10T09:47:43.442Z,23.42
2023-05-10T09:50:10.074Z,23.45
2023-05-10T09:53:00.233Z,23.51
2023-05-10T09:55:39.416Z,23.34
2023-05-10T09:58:10.368Z,23.73
2023-05-10T10:00:37.911Z,23.53
2023-05-10T10:03:06.139Z,23.78
2023-05-10T10:05:36.457Z,23.89
2023-05-10T10:08:04.914Z,23.82
2023-05-10T10:10:32.341Z,23.61
2023-05-10T10:12:59.644Z,23.05
2023-05-10T10:15:26.390Z,22.46
2023-05-10T10:17:54.244Z,22.06
2023-05-10T10:20:22.604Z,22.39
2023-05-10T10:22:49.252Z,22.25
2023-05-10T10:25:17.712Z,22.36
2023-05-10T10:27:53.581Z,21.96
2023-05-10T10:30:36.639Z,21.88
2023-05-10T10:35:54.654Z,22.53
2023-05-10T10:38:21.190Z,22.67
2023-05-10T10:40:47.429Z,22.43
2023-05-10T10:43:27.296Z,22.19
2023-05-10T10:46:16.281Z,22.59
2023-05-10T10:49:08.162Z,22.44
2023-05-10T10:51:41.076Z,22.01
2023-05-10T10:54:11.802Z,21.83
2023-05-10T10:56:38.083Z,21.98
2023-05-10T10:59:04.567Z,22.25
2023-05-10T11:01:37.584Z,22.57
2023-05-10T11:04:04.285Z,22.34
2023-05-10T11:06:34.504Z,22.22
2023-05-10T11:09:08.911Z,21.98
2023-05-10T11:11:36.166Z,21.83
2023-05-10T11:14:07.406Z,22.30
2023-05-10T11:16:44.320Z,22.25
2023-05-10T11:19:13.027Z,22.43
2023-05-10T11:21:54.312Z,22.75
2023-05-10T11:24:28.346Z,23.20
2023-05-10T11:26:55.371Z,23.14
2023-05-10T11:29:22.120Z,23.32
2023-05-10T11:31:49.758Z,22.89
2023-05-10T11:34:27.985Z,23.06
2023-05-10T11:36:55.634Z,23.17
2023-05-10T11:39:26.829Z,23.16
2023-05-10T11:42:48.923Z,23.17
2023-05-10T11:45:15.838Z,23.23
2023-05-10T11:47:43.559Z,23.01
2023-05-10T11:50:11.696Z,23.04
2023-05-10T11:52:38.125Z,22.99
2023-05-10T11:55:05.373Z,23.00
2023-05-10T11:57:31.703Z,22.65
2023-05-10T11:59:58.581Z,23.03
2023-05-10T12:02:24.944Z,23.01
2023-05-10T12:04:51.924Z,23.11
2023-05-10T12:07:18.279Z,23.43
2023-05-10T12:09:47.973Z,23.21
2023-05-10T12:12:17.521Z,23.21
2023-05-10T12:14:44.257Z,23.39
2023-05-10T12:17:13.779Z,23.28
2023-05-10T12:19:41.424Z,23.09
2023-05-10T12:22:07.510Z,23.30
2023-05-10T12:24:35.730Z,23.51
2023-05-10T12:27:07.688Z,22.96
2023-05-10T12:29:34.362Z,22.47
2023-05-10T12:32:00.691Z,22.52
2023-05-10T12:34:36.207Z,22.89
2023-05-10T12:37:03.649Z,22.94
2023-05-10T12:39:45.085Z,23.18
2023-05-10T12:42:11.679Z,23.43
2023-05-10T12:44:39.051Z,23.11
2023-05-10T12:47:06.162Z,23.16
2023-05-10T12:49:32.883Z,22.97
2023-05-10T12:51:59.191Z,23.00
2023-05-10T12:54:26.152Z,23.04
2023-05-10T12:56:52.344Z,23.17
2023-05-10T12:59:19.037Z,23.02
2023-05-10T13:01:45.463Z,23.31
2023-05-10T13:04:12.063Z,23.49
2023-05-10T13:06:38.403Z,23.44
2023-05-10T13:09:05.114Z,23.62
2023-05-10T13:11:31.501Z,23.47
2023-05-10T13:13:58.206Z,23.48
2023-05-10T13:16:24.696Z,23.55
2023-05-10T13:18:51.350Z,23.34
2023-05-10T13:21:17.968Z,23.49
2023-05-10T13:23:44.646Z,23.27
2023-05-10T13:26:11.149Z,23.07
2023-05-10T13:28:39.177Z,23.29
2023-05-10T13:31:05.583Z,23.15
2023-05-10T13:33:32.296Z,23.31
2023-05-10T13:35:58.766Z,23.37
2023-05-10T13:38:26.052Z,23.29
2023-05-10T13:40:53.019Z,23.29
2023-05-10T13:43:19.874Z,23.19
2023-05-10T13:45:46.069Z,23.02
2023-05-10T13:48:12.606Z,23.27
2023-05-10T13:50:38.879Z,23.29
2023-05-10T13:53:05.750Z,23.28
2023-05-10T13:55:32.039Z,23.13
2023-05-10T13:57:58.546Z,23.54
2023-05-10T14:00:25.032Z,23.78
2023-05-10T14:02:52.027Z,23.39
2023-05-10T14:05:19.277Z,23.55
2023-05-10T14:07:49.197Z,23.59
2023-05-10T14:10:15.628Z,23.58
2023-05-10T14:12:42.112Z,23.61
2023-05-10T14:15:10.718Z,23.29
2023-05-10T14:17:37.812Z,23.49
2023-05-10T14:20:04.788Z,23.60
2023-05-10T14:22:31.312Z,23.67
2023-05-10T14:24:58.469Z,23.46
2023-05-10T14:27:25.091Z,22.97
2023-05-10T14:29:51.379Z,22.76
2023-05-10T14:32:18.147Z,23.00
2023-05-10T14:34:44.503Z,23.21
2023-05-10T14:37:12.477Z,23.22
2023-05-10T14:39:39.629Z,23.25
2023-05-10T14:42:06.653Z,23.00
2023-05-10T14:44:33.467Z,22.77
2023-05-10T14:47:00.200Z,23.13
2023-05-10T14:49:26.565Z,22.77
2023-05-10T14:51:53.411Z,22.60
2023-05-10T14:54:19.750Z,22.67
2023-05-10T14:56:46.489Z,22.82
2023-05-10T14:59:12.789Z,22.81
2023-05-10T15:01:42.314Z,22.97
2023-05-10T15:04:09.338Z,23.07
2023-05-10T15:06:37.534Z,23.05
2023-05-10T15:09:04.050Z,22.91
2023-05-10T15:11:30.716Z,22.79
2023-05-10T15:13:57.014Z,22.51
2023-05-10T15:16:23.722Z,22.35
2023-05-10T15:18:50.091Z,22.18
2023-05-10T15:21:16.608Z,22.24
2023-05-10T15:23:42.877Z,22.46
2023-05-10T15:26:09.494Z,22.45
2023-05-10T15:28:35.952Z,22.43
2023-05-10T15:31:03.367Z,22.23
2023-05-10T15:33:29.572Z,22.24
2023-05-10T15:35:56.122Z,22.09
2023-05-10T15:38:22.891Z,21.98
2023-05-10T15:40:49.391Z,21.89
2023-05-10T15:43:15.818Z,21.82
2023-05-10T15:45:42.744Z,21.94
2023-05-10T15:48:09.251Z,22.08
2023-05-10T15:50:36.025Z,22.12
2023-05-10T15:53:02.595Z,22.17
2023-05-10T15:55:29.661Z,22.16
2023-05-10T15:57:56.066Z,22.06
2023-05-10T16:00:22.971Z,22.00
2023-05-10T16:02:52.622Z,21.93
2023-05-10T16:05:19.669Z,21.83
2023-05-10T16:07:46.970Z,21.74
2023-05-10T16:10:13.657Z,21.71
2023-05-10T16:12:40.034Z,21.53
2023-05-10T16:15:08.790Z,21.45
2023-05-10T16:17:35.446Z,21.41
2023-05-10T16:20:02.420Z,21.19
2023-05-10T16:22:29.425Z,21.12
2023-05-10T16:24:56.923Z,21.05
2023-05-10T16:27:23.188Z,21.11
2023-05-10T16:29:50.004Z,21.16
2023-05-10T16:32:16.482Z,21.15
2023-05-10T16:34:43.035Z,21.13
2023-05-10T16:37:10.588Z,21.00
2023-05-10T16:39:37.212Z,20.90
2023-05-10T16:42:03.779Z,20.92
2023-05-10T16:44:31.073Z,20.81
2023-05-10T16:46:57.545Z,20.81
2023-05-10T16:49:26.113Z,20.81
2023-05-10T16:51:52.982Z,20.90
2023-05-10T16:54:21.105Z,21.00
2023-05-10T16:56:47.437Z,21.06
2023-05-10T16:59:14.074Z,21.00
2023-05-10T17:01:40.650Z,20.98
2023-05-10T17:04:07.449Z,20.80
2023-05-10T17:06:35.279Z,20.64
2023-05-10T17:09:03.373Z,20.64
2023-05-10T17:11:29.624Z,20.62
2023-05-10T17:13:56.703Z,20.54
2023-05-10T17:16:23.042Z,20.56
2023-05-10T17:18:49.869Z,20.45
2023-05-10T17:21:16.358Z,20.42
2023-05-10T17:23:43.026Z,20.35
2023-05-10T17:26:09.349Z,20.27
2023-05-10T17:28:36.090Z,20.09
2023-05-10T17:31:02.674Z,19.96
2023-05-10T17:33:29.298Z,19.93
2023-05-10T17:35:56.353Z,19.88
2023-05-10T17:38:23.232Z,19.76
2023-05-10T17:40:51.070Z,19.71
2023-05-10T17:43:17.879Z,19.70
2023-05-10T17:45:49.250Z,19.63
2023-05-10T17:48:16.628Z,19.56
2023-05-10T17:50:43.124Z,19.46
2023-05-10T17:53:10.440Z,19.38
2023-05-10T17:55:40.642Z,19.31
2023-05-10T17:58:08.985Z,19.30
2023-05-10T18:00:39.013Z,19.25
2023-05-10T18:03:06.243Z,19.26
2023-05-10T18:05:37.230Z,19.18
2023-05-10T18:08:04.919Z,19.10
2023-05-10T18:10:33.254Z,18.97
2023-05-10T18:13:01.891Z,18.88
2023-05-10T18:15:28.386Z,18.76
2023-05-10T18:17:56.058Z,18.65
2023-05-10T18:20:22.934Z,18.62
2023-05-10T18:22:49.940Z,18.56
2023-05-10T18:25:16.603Z,18.51
2023-05-10T18:27:44.011Z,18.43
2023-05-10T18:30:11.780Z,18.38
2023-05-10T18:32:38.979Z,18.28
2023-05-10T18:35:09.773Z,18.32
2023-05-10T18:37:41.037Z,18.25
2023-05-10T18:40:13.912Z,18.15
2023-05-10T18:42:41.368Z,18.14
2023-05-10T18:45:08.256Z,18.10
2023-05-10T18:47:34.990Z,18.03
2023-05-10T18:50:04.454Z,18.04
2023-05-10T18:52:31.489Z,17.97
2023-05-10T18:54:58.265Z,17.97
2023-05-10T18:57:26.829Z,17.88
2023-05-10T19:00:03.279Z,17.89
2023-05-10T19:02:36.201Z,17.80
2023-05-10T19:05:06.134Z,17.75
2023-05-10T19:07:39.114Z,17.76
2023-05-10T19:10:13.827Z,17.75
2023-05-10T19:12:41.106Z,17.74
2023-05-10T19:15:18.579Z,17.74
2023-05-10T19:17:51.587Z,17.61
2023-05-10T19:20:18.738Z,17.56
2023-05-10T19:23:02.595Z,17.57
2023-05-10T19:25:46.991Z,17.57
2023-05-10T19:28:18.951Z,17.58
2023-05-10T19:30:49.325Z,17.53
2023-05-10T19:33:18.960Z,17.49
2023-05-10T19:35:52.082Z,17.57
2023-05-10T19:38:22.625Z,17.52
2023-05-10T19:41:05.520Z,17.59
2023-05-10T19:43:39.733Z,17.51
2023-05-10T19:46:17.147Z,17.53
2023-05-10T19:48:50.083Z,17.51
2023-05-10T19:51:16.318Z,17.50
2023-05-10T19:53:44.207Z,17.46
2023-05-10T19:56:12.003Z,17.41
2023-05-10T19:58:38.653Z,17.39
2023-05-10T20:01:07.718Z,17.42
2023-05-10T20:03:35.753Z,17.41
2023-05-10T20:06:03.215Z,17.40
2023-05-10T20:08:30.329Z,17.31
2023-05-10T20:11:01.817Z,17.33
2023-05-10T20:13:28.827Z,17.32
2023-05-10T20:15:56.917Z,17.26
2023-05-10T20:18:23.921Z,17.24
2023-05-10T20:20:57.767Z,17.14
2023-05-10T20:23:25.049Z,17.16
2023-05-10T20:25:51.573Z,17.11
2023-05-10T20:28:21.298Z,17.07
2023-05-10T20:30:47.854Z,17.00
2023-05-10T20:33:17.254Z,16.98
2023-05-10T20:35:43.598Z,16.94
2023-05-10T20:38:10.129Z,16.87
2023-05-10T20:40:36.373Z,16.86
2023-05-10T20:43:04.712Z,16.83
2023-05-10T20:45:31.788Z,16.74
2023-05-10T20:47:58.369Z,16.74
2023-05-10T20:50:24.796Z,16.62
2023-05-10T20:52:51.771Z,16.59
2023-05-10T20:55:18.683Z,16.55
2023-05-10T20:57:46.361Z,16.50
2023-05-10T21:00:13.737Z,16.46
2023-05-10T21:02:43.746Z,16.46
2023-05-10T21:05:09.925Z,16.43
2023-05-10T21:07:36.471Z,16.39
2023-05-10T21:10:02.728Z,16.38
2023-05-10T21:12:29.361Z,16.27
2023-05-10T21:14:55.576Z,16.20
2023-05-10T21:17:21.968Z,16.17
2023-05-10T21:19:48.125Z,16.12
2023-05-10T21:22:14.756Z,16.12
2023-05-10T21:24:41.252Z,16.08
2023-05-10T21:27:08.359Z,15.99
2023-05-10T21:29:34.718Z,16.06
2023-05-10T21:32:01.511Z,16.02
2023-05-10T21:34:28.221Z,16.04
2023-05-10T21:36:54.701Z,16.00
2023-05-10T21:39:21.261Z,15.99
2023-05-10T21:41:47.873Z,15.99
2023-05-10T21:44:14.002Z,15.97
2023-05-10T21:46:40.398Z,15.89
2023-05-10T21:49:06.632Z,15.83
2023-05-10T21:51:33.066Z,15.82
2023-05-10T21:53:59.121Z,15.79
2023-05-10T21:56:25.662Z,15.77
2023-05-10T21:58:51.943Z,15.76
2023-05-10T22:01:18.847Z,15.76
2023-05-10T22:03:45.778Z,15.76
2023-05-10T22:06:12.544Z,15.73
2023-05-10T22:08:38.788Z,15.76
2023-05-10T22:11:05.460Z,15.74
2023-05-10T22:13:31.730Z,15.69
2023-05-10T22:15:58.537Z,15.69
2023-05-10T22:18:24.966Z,15.65
2023-05-10T22:20:51.471Z,15.57
2023-05-10T22:23:17.648Z,15.53
2023-05-10T22:25:44.105Z,15.48
2023-05-10T22:28:10.272Z,15.43
2023-05-10T22:30:36.820Z,15.40
2023-05-10T22:33:02.980Z,15.27
2023-05-10T22:35:29.522Z,15.18
2023-05-10T22:37:56.040Z,15.19
2023-05-10T22:40:22.511Z,15.16
2023-05-10T22:42:48.690Z,15.14
2023-05-10T22:45:15.137Z,15.15
2023-05-10T22:47:41.256Z,15.05
2023-05-10T22:50:08.250Z,15.04
2023-05-10T22:52:34.415Z,15.04
2023-05-10T22:55:00.889Z,15.04
2023-05-10T22:57:26.990Z,15.07
2023-05-10T22:59:53.433Z,15.00
2023-05-10T23:02:19.584Z,15.00
2023-05-10T23:04:46.447Z,14.89
2023-05-10T23:07:12.960Z,14.80
2023-05-10T23:09:39.290Z,14.77
2023-05-10T23:12:05.450Z,14.74
2023-05-10T23:14:31.821Z,14.70
2023-05-10T23:16:57.935Z,14.55
2023-05-10T23:19:24.282Z,14.57
2023-05-10T23:21:50.403Z,14.54
2023-05-10T23:24:16.910Z,14.48
2023-05-10T23:26:45.545Z,14.49
2023-05-10T23:29:12.052Z,14.46
2023-05-10T23:31:44.335Z,14.45
2023-05-10T23:34:14.637Z,14.40
2023-05-10T23:36:40.824Z,14.36
2023-05-10T23:39:07.476Z,14.36
2023-05-10T23:41:33.951Z,14.32
2023-05-10T23:44:03.568Z,14.24
2023-05-10T23:46:29.787Z,14.27
2023-05-10T23:48:56.159Z,14.26
2023-05-10T23:51:22.297Z,14.24
2023-05-10T23:53:48.702Z,14.20
2023-05-10T23:56:14.850Z,14.17
2023-05-10T23:58:41.863Z,14.12
